Ballinger, TX

6:07 PM CDT on May 27, 2015 (GMT -0500)
Hutchings Ave | | Change Station
CLOSE
Current Station
Personal Weather Station
Location: Ballinger, TX
Elevation: 1631 ft
Nearby Weather Stations

Elev 1631 ft 31.74 °N, 99.95 °W | Updated 21 seconds ago

Partly Cloudy
Partly Cloudy
86.2 °F
Feels Like 91 °F
N
6.9
Wind Variable Wind from SSE
Gusts 15.0 mph

Today
High -- | Low -- °F
--% Chance of Precip.
Yesterday
High -- | Low -- °F
Precip. -- in
6:36 AM 8:37 PM
Waxing Gibbous, 71% visible
Pressure 29.98 in
Visibility 10.0 miles
Clouds Scattered Clouds 3000 ft
Scattered Clouds 4000 ft
Scattered Clouds 4900 ft
Heat Index 91 °F
Dew Point 71 °F
Humidity 60%
Rainfall 0.00 in
Snow Depth Not available.
UV 3 out of 12
Pollen 5.00 out of 12
Air Quality Not available.
Flu Activity Sporadic
METAR KCOM 272255Z AUTO 10005KT 10SM SCT030 SCT040 SCT049 27/24 A2998 RMK AO2 LTG DSNT S T02670235

More Conditions Fewer Conditions

Pressure 29.98 in
Visibility 10.0 miles
Clouds Scattered Clouds 3000 ft
Scattered Clouds 4000 ft
Scattered Clouds 4900 ft
Heat Index 91 °F
Dew Point 71 °F
Humidity 60%
Rainfall 0.00 in
Snow Depth Not available.
UV 3 out of 12
Pollen 5.00 out of 12
Air Quality Not available.
Flu Activity Sporadic
METAR KCOM 272255Z AUTO 10005KT 10SM SCT030 SCT040 SCT049 27/24 A2998 RMK AO2 LTG DSNT S T02670235

More Conditions Fewer Conditions

10-Day Weather Forecast

Almanac

Astronomy

May. 27, 2015 Rise Set
Actual Time
Civil Twilight
Nautical Twilight
Astronomical Twilight
Moon
Length of Visible Light
Length of Day
Tomorrow will be .
, % of the Moon is Illuminated

Today's Extremes

State Highs State Lows

Community

WunderPhotos

Upload Photos

1,824,815 photos uploaded!

WunderBlogs® & News

Nearby

Air Quality

  Air Quality AQ Index Pollutant
Not available.

Snow Depth

Station Depth Elevation

Earthquake Activity

City Distance Mag. Time & Date
Minimum magnitude displayed is 2.5.

Coastal Water Temperatures

Place Temperature

Stations

Nearby Weather Stations

Station Location Temp. Windchill Dew Point Humidity Wind Precip. Elev Updated Type